createdAt,value
2022-10-18T00:02:03.890Z,17.28
2022-10-18T00:04:06.996Z,17.27
2022-10-18T00:06:10.751Z,17.24
2022-10-18T00:08:13.791Z,17.21
2022-10-18T00:10:16.804Z,17.20
2022-10-18T00:12:19.805Z,17.22
2022-10-18T00:14:23.272Z,17.23
2022-10-18T00:16:26.317Z,17.23
2022-10-18T00:18:31.191Z,17.23
2022-10-18T00:20:34.155Z,17.23
2022-10-18T00:22:38.191Z,17.23
2022-10-18T00:24:41.274Z,17.24
2022-10-18T00:26:44.551Z,17.23
2022-10-18T00:28:48.221Z,17.19
2022-10-18T00:30:51.200Z,17.17
2022-10-18T00:32:54.234Z,17.16
2022-10-18T00:34:59.175Z,17.18
2022-10-18T00:37:02.245Z,17.19
2022-10-18T00:39:05.900Z,17.18
2022-10-18T00:41:09.906Z,17.13
2022-10-18T00:43:15.791Z,17.04
2022-10-18T00:45:21.192Z,17.03
2022-10-18T00:47:24.573Z,17.07
2022-10-18T00:49:31.212Z,17.09
2022-10-18T00:51:39.341Z,17.08
2022-10-18T00:53:42.437Z,16.98
2022-10-18T00:55:45.556Z,16.96
2022-10-18T00:57:49.397Z,17.00
2022-10-18T00:59:52.799Z,16.95
2022-10-18T01:01:55.986Z,16.85
2022-10-18T01:03:59.040Z,16.93
2022-10-18T01:06:02.037Z,16.98
2022-10-18T01:08:18.385Z,16.92
2022-10-18T01:10:27.835Z,16.90
2022-10-18T01:12:39.606Z,16.96
2022-10-18T01:14:46.203Z,16.93
2022-10-18T01:16:53.398Z,16.86
2022-10-18T01:18:59.496Z,16.85
2022-10-18T01:21:16.441Z,16.80
2022-10-18T01:23:25.185Z,16.85
2022-10-18T01:25:37.649Z,16.92
2022-10-18T01:27:45.507Z,16.98
2022-10-18T01:29:55.701Z,17.05
2022-10-18T01:32:01.153Z,17.10
2022-10-18T01:34:06.142Z,17.13
2022-10-18T01:36:13.354Z,17.18
2022-10-18T01:38:18.106Z,17.15
2022-10-18T01:40:23.301Z,17.12
2022-10-18T01:42:26.711Z,17.04
2022-10-18T01:44:32.711Z,16.98
2022-10-18T01:46:36.344Z,16.96
2022-10-18T01:48:41.054Z,17.00
2022-10-18T01:50:44.129Z,17.03
2022-10-18T01:52:50.330Z,17.07
2022-10-18T01:54:55.032Z,17.13
2022-10-18T01:56:59.756Z,17.17
2022-10-18T01:59:17.598Z,17.17
2022-10-18T02:01:24.542Z,17.20
2022-10-18T02:03:29.889Z,17.19
2022-10-18T02:05:38.609Z,17.09
2022-10-18T02:07:48.977Z,17.10
2022-10-18T02:10:02.947Z,17.16
2022-10-18T02:12:08.655Z,17.17
2022-10-18T02:14:13.402Z,17.12
2022-10-18T02:16:20.038Z,17.06
2022-10-18T02:18:26.539Z,17.07
2022-10-18T02:20:32.270Z,17.07
2022-10-18T02:22:37.862Z,17.11
2022-10-18T02:24:43.214Z,17.13
2022-10-18T02:26:46.220Z,17.13
2022-10-18T02:28:49.298Z,17.18
2022-10-18T02:30:54.435Z,17.21
2022-10-18T02:32:59.787Z,17.20
2022-10-18T02:35:05.317Z,17.04
2022-10-18T02:37:09.499Z,17.01
2022-10-18T02:39:15.335Z,17.07
2022-10-18T02:41:23.100Z,17.08
2022-10-18T02:43:26.119Z,17.12
2022-10-18T02:45:29.237Z,17.14
2022-10-18T02:47:32.814Z,17.18
2022-10-18T02:49:36.065Z,17.21
2022-10-18T02:51:39.101Z,17.19
2022-10-18T02:53:42.176Z,17.19
2022-10-18T02:55:46.498Z,17.18
2022-10-18T02:57:49.712Z,17.16
2022-10-18T02:59:52.766Z,17.18
2022-10-18T03:01:55.828Z,17.20
2022-10-18T03:03:59.112Z,17.20
2022-10-18T03:06:02.222Z,17.20
2022-10-18T03:08:05.525Z,17.17
2022-10-18T03:10:08.962Z,17.20
2022-10-18T03:12:13.301Z,17.18
2022-10-18T03:14:16.415Z,17.14
2022-10-18T03:16:19.413Z,17.12
2022-10-18T03:18:22.433Z,17.16
2022-10-18T03:20:25.457Z,17.17
2022-10-18T03:24:37.066Z,17.18
2022-10-18T03:26:40.087Z,17.19
2022-10-18T03:28:44.510Z,17.19
2022-10-18T03:30:47.564Z,17.21
2022-10-18T03:32:50.652Z,17.23
2022-10-18T03:34:53.701Z,17.26
2022-10-18T03:37:00.882Z,17.25
2022-10-18T03:39:06.435Z,17.29
2022-10-18T03:41:09.657Z,17.31
2022-10-18T03:43:12.668Z,17.32
2022-10-18T03:45:17.160Z,17.31
2022-10-18T03:47:20.318Z,17.31
2022-10-18T03:49:23.397Z,17.31
2022-10-18T03:51:26.399Z,17.34
2022-10-18T03:53:29.420Z,17.33
2022-10-18T03:55:32.467Z,17.32
2022-10-18T03:57:35.823Z,17.28
2022-10-18T03:59:38.877Z,17.28
2022-10-18T04:01:43.235Z,17.29
2022-10-18T04:03:46.367Z,17.27
2022-10-18T04:05:50.060Z,17.23
2022-10-18T04:07:53.206Z,17.22
2022-10-18T04:09:56.216Z,17.27
2022-10-18T04:11:59.229Z,17.27
2022-10-18T04:14:02.270Z,17.27
2022-10-18T04:16:05.634Z,17.16
2022-10-18T04:18:10.046Z,17.07
2022-10-18T04:20:13.974Z,16.97
2022-10-18T04:22:17.015Z,16.88
2022-10-18T04:24:20.252Z,16.91
2022-10-18T04:26:23.224Z,16.96
2022-10-18T04:28:26.307Z,16.98
2022-10-18T04:30:29.313Z,17.03
2022-10-18T04:32:32.452Z,17.06
2022-10-18T04:34:36.935Z,17.03
2022-10-18T04:36:39.938Z,17.09
2022-10-18T04:38:43.012Z,17.12
2022-10-18T04:40:46.646Z,17.13
2022-10-18T04:42:49.720Z,17.15
2022-10-18T04:44:52.848Z,17.17
2022-10-18T04:46:55.876Z,17.19
2022-10-18T04:49:01.175Z,17.20
2022-10-18T04:51:05.756Z,17.22
2022-10-18T04:53:08.777Z,17.23
2022-10-18T04:55:11.791Z,17.27
2022-10-18T04:57:14.829Z,17.28
2022-10-18T04:59:17.843Z,17.28
2022-10-18T05:01:20.881Z,17.29
2022-10-18T05:03:23.901Z,17.29
2022-10-18T05:05:43.284Z,17.24
2022-10-18T05:07:51.326Z,17.25
2022-10-18T05:09:54.294Z,17.22
2022-10-18T05:11:57.353Z,17.20
2022-10-18T05:14:00.445Z,17.20
2022-10-18T05:16:03.450Z,17.18
2022-10-18T05:18:06.481Z,17.14
2022-10-18T05:20:10.109Z,17.16
2022-10-18T05:22:13.150Z,17.14
2022-10-18T05:24:17.539Z,17.17
2022-10-18T05:26:20.522Z,17.19
2022-10-18T05:28:41.045Z,17.22
2022-10-18T05:30:44.500Z,17.20
2022-10-18T05:32:47.496Z,17.21
2022-10-18T05:34:50.489Z,17.21
2022-10-18T05:36:53.495Z,17.19
2022-10-18T05:38:58.661Z,17.09
2022-10-18T05:41:06.956Z,17.06
2022-10-18T05:43:10.017Z,17.10
2022-10-18T05:45:13.077Z,17.13
2022-10-18T05:47:17.785Z,17.17
2022-10-18T05:49:20.948Z,17.20
2022-10-18T05:51:24.317Z,17.18
2022-10-18T05:53:42.936Z,17.19
2022-10-18T05:55:45.979Z,17.19
2022-10-18T05:57:51.804Z,17.21
2022-10-18T05:59:54.880Z,17.23
2022-10-18T06:01:57.889Z,17.27
2022-10-18T06:04:00.941Z,17.21
2022-10-18T06:06:05.143Z,17.15
2022-10-18T06:08:10.302Z,17.10
2022-10-18T06:10:13.498Z,17.08
2022-10-18T06:12:16.610Z,17.05
2022-10-18T06:14:21.015Z,17.02
2022-10-18T06:16:27.363Z,17.06
2022-10-18T06:18:32.864Z,17.07
2022-10-18T06:20:35.940Z,17.05
2022-10-18T06:22:39.044Z,16.98
2022-10-18T06:24:42.057Z,16.92
2022-10-18T06:26:45.207Z,16.87
2022-10-18T06:28:48.505Z,16.80
2022-10-18T06:30:53.075Z,16.82
2022-10-18T06:32:59.910Z,16.89
2022-10-18T06:35:03.248Z,16.91
2022-10-18T06:37:06.352Z,16.99
2022-10-18T06:39:09.333Z,16.99
2022-10-18T06:41:14.516Z,16.97
2022-10-18T06:43:21.063Z,16.99
2022-10-18T06:45:24.455Z,17.02
2022-10-18T06:47:28.929Z,17.05
2022-10-18T06:49:31.969Z,17.10
2022-10-18T06:51:35.096Z,17.14
2022-10-18T06:53:44.214Z,17.17
2022-10-18T06:56:01.403Z,17.20
2022-10-18T06:58:04.762Z,17.18
2022-10-18T07:00:08.405Z,17.19
2022-10-18T07:02:15.544Z,17.21
2022-10-18T07:04:19.898Z,17.17
2022-10-18T07:06:24.038Z,17.06
2022-10-18T07:08:30.853Z,16.93
2022-10-18T07:10:35.031Z,16.83
2022-10-18T07:12:38.098Z,16.80
2022-10-18T07:14:41.109Z,16.81
2022-10-18T07:16:44.137Z,16.73
2022-10-18T07:18:48.253Z,16.70
2022-10-18T07:20:52.631Z,16.69
2022-10-18T07:22:56.982Z,16.72
2022-10-18T07:25:00.020Z,16.74
2022-10-18T07:27:03.276Z,16.81
2022-10-18T07:29:08.545Z,16.84
2022-10-18T07:31:12.096Z,16.92
2022-10-18T07:33:15.174Z,17.02
2022-10-18T07:35:18.301Z,17.04
2022-10-18T07:37:26.593Z,17.07
2022-10-18T07:39:32.384Z,17.12
2022-10-18T07:41:35.579Z,17.16
2022-10-18T07:43:41.901Z,17.14
2022-10-18T07:45:52.236Z,17.17
2022-10-18T07:47:55.815Z,17.20
2022-10-18T07:50:00.442Z,17.21
2022-10-18T07:52:03.468Z,17.25
2022-10-18T07:54:07.827Z,17.29
2022-10-18T07:56:15.867Z,17.30
2022-10-18T07:58:18.894Z,17.29
2022-10-18T08:00:21.932Z,17.29
2022-10-18T08:02:25.203Z,17.32
2022-10-18T08:04:28.220Z,17.35
2022-10-18T08:06:31.382Z,17.36
2022-10-18T08:08:34.461Z,17.31
2022-10-18T08:10:38.806Z,17.24
2022-10-18T08:12:42.355Z,17.23
2022-10-18T08:14:45.373Z,17.27
2022-10-18T08:16:48.377Z,17.22
2022-10-18T08:18:51.424Z,17.33
2022-10-18T08:20:54.535Z,17.30
2022-10-18T08:23:00.150Z,17.34
2022-10-18T08:25:03.785Z,17.36
2022-10-18T08:27:08.770Z,17.37
2022-10-18T08:29:32.063Z,17.37
2022-10-18T08:31:35.296Z,17.34
2022-10-18T08:33:39.601Z,17.35
2022-10-18T08:35:42.606Z,17.33
2022-10-18T08:37:46.247Z,17.31
2022-10-18T08:39:49.386Z,17.29
2022-10-18T08:42:02.507Z,17.31
2022-10-18T08:44:11.734Z,17.29
2022-10-18T08:46:15.139Z,17.24
2022-10-18T08:48:21.759Z,17.26
2022-10-18T08:50:26.720Z,17.21
2022-10-18T08:52:33.368Z,17.18
2022-10-18T08:54:39.477Z,17.20
2022-10-18T08:56:43.977Z,17.21
2022-10-18T08:58:47.018Z,17.20
2022-10-18T09:00:57.662Z,17.19
2022-10-18T09:03:08.269Z,17.20
2022-10-18T09:05:20.601Z,17.16
2022-10-18T09:07:29.093Z,17.17
2022-10-18T09:09:36.537Z,17.18
2022-10-18T09:11:45.667Z,17.14
2022-10-18T09:14:01.195Z,17.17
2022-10-18T09:16:06.891Z,17.14
2022-10-18T09:18:14.854Z,17.18
2022-10-18T09:20:22.715Z,17.17
2022-10-18T09:22:31.291Z,17.19
2022-10-18T09:24:39.916Z,17.21
2022-10-18T09:26:45.095Z,17.21
2022-10-18T09:28:55.551Z,17.24
2022-10-18T09:31:02.148Z,17.27
2022-10-18T09:33:14.195Z,17.33
2022-10-18T09:35:19.362Z,17.35
2022-10-18T09:37:23.933Z,17.36
2022-10-18T09:39:30.068Z,17.37
2022-10-18T09:41:36.102Z,17.38
2022-10-18T09:43:43.512Z,17.37
2022-10-18T09:45:48.106Z,17.38
2022-10-18T09:47:57.421Z,17.43
2022-10-18T09:50:03.346Z,17.49
2022-10-18T09:52:09.112Z,17.55
2022-10-18T09:54:18.464Z,17.48
2022-10-18T09:56:25.038Z,17.47
2022-10-18T09:58:29.411Z,17.45
2022-10-18T10:00:34.711Z,17.45
2022-10-18T10:02:37.951Z,17.53
2022-10-18T10:04:41.032Z,17.61
2022-10-18T10:06:52.035Z,17.60
2022-10-18T10:08:56.410Z,17.63
2022-10-18T10:10:59.497Z,17.68
2022-10-18T10:13:06.821Z,17.48
2022-10-18T10:15:13.430Z,17.86
2022-10-18T10:17:23.761Z,17.95
2022-10-18T10:19:31.994Z,17.95
2022-10-18T10:21:35.091Z,17.90
2022-10-18T10:23:45.514Z,17.81
2022-10-18T10:25:51.819Z,17.81
2022-10-18T10:27:54.953Z,17.84
2022-10-18T10:30:01.501Z,17.89
2022-10-18T10:32:13.405Z,17.91
2022-10-18T10:34:21.019Z,17.87
2022-10-18T10:36:24.230Z,17.87
2022-10-18T10:38:28.116Z,17.87
2022-10-18T10:40:32.994Z,17.85
2022-10-18T10:42:38.583Z,17.89
2022-10-18T10:44:54.780Z,17.93
2022-10-18T10:46:58.308Z,17.94
2022-10-18T10:49:35.041Z,18.00
2022-10-18T10:51:30.499Z,18.04
2022-10-18T10:53:36.435Z,18.06
2022-10-18T10:55:40.801Z,18.12
2022-10-18T10:57:45.048Z,18.20
2022-10-18T10:59:49.131Z,18.31
2022-10-18T11:02:12.133Z,18.43
2022-10-18T11:04:25.706Z,18.60
2022-10-18T11:06:43.576Z,18.58
2022-10-18T11:08:47.336Z,18.47
2022-10-18T11:10:55.243Z,18.51
2022-10-18T11:13:04.356Z,18.42
2022-10-18T11:15:13.081Z,18.39
2022-10-18T11:17:22.032Z,18.34
2022-10-18T11:19:30.837Z,18.26
2022-10-18T11:21:34.189Z,18.25
2022-10-18T11:23:38.300Z,18.28
2022-10-18T11:25:49.925Z,18.25
2022-10-18T11:27:58.555Z,18.30
2022-10-18T11:30:15.378Z,18.23
2022-10-18T11:32:22.310Z,18.25
2022-10-18T11:34:39.530Z,18.32
2022-10-18T11:36:54.759Z,18.84
2022-10-18T11:39:10.795Z,19.25
2022-10-18T11:41:23.506Z,19.68
2022-10-18T11:44:00.612Z,20.01
2022-10-18T11:46:01.807Z,19.95
2022-10-18T11:48:10.457Z,19.95
2022-10-18T11:50:26.078Z,19.82
2022-10-18T11:52:34.554Z,19.86
2022-10-18T11:54:46.393Z,20.11
2022-10-18T11:56:53.193Z,20.30
2022-10-18T11:59:04.190Z,20.46
2022-10-18T12:01:12.813Z,20.71
2022-10-18T12:03:29.059Z,20.84
2022-10-18T12:05:32.978Z,20.59
2022-10-18T12:07:38.991Z,20.80
2022-10-18T12:11:55.491Z,21.07
2022-10-18T12:14:01.487Z,20.85
2022-10-18T12:16:06.005Z,20.54
2022-10-18T12:18:12.405Z,20.42
2022-10-18T12:20:18.219Z,20.36
2022-10-18T12:22:22.847Z,20.27
2022-10-18T12:24:28.552Z,19.86
2022-10-18T12:26:32.359Z,19.91
2022-10-18T12:28:40.239Z,19.75
2022-10-18T12:30:48.083Z,19.85
2022-10-18T12:33:03.562Z,20.37
2022-10-18T12:35:15.873Z,20.47
2022-10-18T12:37:36.775Z,20.41
2022-10-18T12:39:50.442Z,20.16
2022-10-18T12:42:04.922Z,19.82
2022-10-18T12:44:08.902Z,19.69
2022-10-18T12:46:13.910Z,19.60
2022-10-18T12:48:28.611Z,19.93
2022-10-18T12:50:34.822Z,19.99
2022-10-18T12:52:37.924Z,20.04
2022-10-18T12:54:41.004Z,20.34
2022-10-18T12:56:44.569Z,20.63
2022-10-18T12:58:47.616Z,20.96
2022-10-18T13:01:04.273Z,21.38
2022-10-18T13:03:37.921Z,21.38
2022-10-18T13:05:56.573Z,21.68
2022-10-18T13:08:21.852Z,21.61
2022-10-18T13:10:34.946Z,21.98
2022-10-18T13:12:58.829Z,22.55
2022-10-18T13:15:24.182Z,22.59
2022-10-18T13:17:32.673Z,22.64
2022-10-18T13:19:47.194Z,22.62
2022-10-18T13:21:56.079Z,22.70
2022-10-18T13:24:07.011Z,22.91
2022-10-18T13:26:15.925Z,22.85
2022-10-18T13:28:25.722Z,22.71
2022-10-18T13:30:33.748Z,22.60
2022-10-18T13:32:39.794Z,22.61
2022-10-18T13:34:44.712Z,22.66
2022-10-18T13:36:56.269Z,22.71
2022-10-18T13:39:02.101Z,22.89
2022-10-18T13:41:06.764Z,23.13
2022-10-18T13:43:24.611Z,22.71
2022-10-18T13:45:55.515Z,22.51
2022-10-18T13:47:58.934Z,22.35
2022-10-18T13:52:40.324Z,21.66
2022-10-18T13:54:54.535Z,21.86
2022-10-18T13:57:12.674Z,22.33
2022-10-18T13:59:33.447Z,22.60
2022-10-18T14:01:42.457Z,22.69
2022-10-18T14:03:59.433Z,22.65
2022-10-18T14:06:05.947Z,22.85
2022-10-18T14:08:14.551Z,22.97
2022-10-18T14:10:26.792Z,23.18
2022-10-18T14:12:41.828Z,22.93
2022-10-18T14:14:47.064Z,22.87
2022-10-18T14:16:55.792Z,22.50
2022-10-18T14:19:03.679Z,22.21
2022-10-18T14:21:14.001Z,22.84
2022-10-18T14:23:21.294Z,22.94
2022-10-18T14:25:27.863Z,23.10
2022-10-18T14:27:32.489Z,23.15
2022-10-18T14:29:35.850Z,23.22
2022-10-18T14:31:38.853Z,23.06
2022-10-18T14:33:43.150Z,23.17
2022-10-18T14:35:58.974Z,23.32
2022-10-18T14:38:02.516Z,23.77
2022-10-18T14:40:07.432Z,24.09
2022-10-18T14:42:19.984Z,24.02
2022-10-18T14:44:26.186Z,23.52
2022-10-18T14:46:31.171Z,23.41
2022-10-18T14:48:34.932Z,23.61
2022-10-18T14:50:38.087Z,23.60
2022-10-18T14:52:41.164Z,23.65
2022-10-18T14:54:44.335Z,23.61
2022-10-18T14:56:49.066Z,23.19
2022-10-18T14:58:53.244Z,23.06
2022-10-18T15:00:56.275Z,23.26
2022-10-18T15:02:59.593Z,23.27
2022-10-18T15:05:06.732Z,23.18
2022-10-18T15:07:15.622Z,23.11
2022-10-18T15:09:23.063Z,22.98
2022-10-18T15:11:28.433Z,22.79
2022-10-18T15:13:33.628Z,22.52
2022-10-18T15:15:36.679Z,22.34
2022-10-18T15:17:41.242Z,22.56
2022-10-18T15:19:54.667Z,22.56
2022-10-18T15:22:30.860Z,22.37
2022-10-18T15:24:27.610Z,22.27
2022-10-18T15:26:31.414Z,21.95
2022-10-18T15:28:37.753Z,21.68
2022-10-18T15:30:42.883Z,21.54
2022-10-18T15:32:49.862Z,21.29
2022-10-18T15:34:52.963Z,21.15
2022-10-18T15:36:57.001Z,21.14
2022-10-18T15:39:07.454Z,21.05
2022-10-18T15:41:28.993Z,21.04
2022-10-18T15:43:37.835Z,20.84
2022-10-18T15:48:00.115Z,20.32
2022-10-18T15:50:03.477Z,20.26
2022-10-18T15:52:25.204Z,20.19
2022-10-18T15:54:30.863Z,20.04
2022-10-18T15:56:34.682Z,20.01
2022-10-18T15:58:41.646Z,20.01
2022-10-18T16:00:46.770Z,19.70
2022-10-18T16:02:49.810Z,19.59
2022-10-18T16:04:52.937Z,19.63
2022-10-18T16:06:56.447Z,19.59
2022-10-18T16:08:59.490Z,19.51
2022-10-18T16:11:02.613Z,19.59
2022-10-18T16:13:05.608Z,19.47
2022-10-18T16:15:10.764Z,19.45
2022-10-18T16:17:16.845Z,19.38
2022-10-18T16:19:21.268Z,19.33
2022-10-18T16:21:25.624Z,19.29
2022-10-18T16:23:29.572Z,19.25
2022-10-18T16:25:35.328Z,19.22
2022-10-18T16:27:38.432Z,19.21
2022-10-18T16:29:41.621Z,19.19
2022-10-18T16:31:46.624Z,19.17
2022-10-18T16:33:49.961Z,19.14
2022-10-18T16:35:53.365Z,19.13
2022-10-18T16:37:56.565Z,19.12
2022-10-18T16:39:59.668Z,19.08
2022-10-18T16:42:02.645Z,19.07
2022-10-18T16:44:05.746Z,18.96
2022-10-18T16:46:11.336Z,18.93
2022-10-18T16:48:16.832Z,18.93
2022-10-18T16:50:21.903Z,18.88
2022-10-18T16:52:24.961Z,18.85
2022-10-18T16:54:28.051Z,18.71
2022-10-18T16:56:32.472Z,18.76
2022-10-18T16:58:35.510Z,18.73
2022-10-18T17:00:39.428Z,18.73
2022-10-18T17:02:42.719Z,18.66
2022-10-18T17:04:47.080Z,18.58
2022-10-18T17:06:50.233Z,18.56
2022-10-18T17:08:53.868Z,18.49
2022-10-18T17:10:58.146Z,18.42
2022-10-18T17:13:01.354Z,18.36
2022-10-18T17:15:04.901Z,18.35
2022-10-18T17:17:10.999Z,18.26
2022-10-18T17:19:14.820Z,18.23
2022-10-18T17:21:19.370Z,18.20
2022-10-18T17:23:22.464Z,18.13
2022-10-18T17:25:25.543Z,18.07
2022-10-18T17:27:28.594Z,18.05
2022-10-18T17:29:31.609Z,18.05
2022-10-18T17:31:35.587Z,17.98
2022-10-18T17:33:38.607Z,17.95
2022-10-18T17:35:43.213Z,17.89
2022-10-18T17:37:49.496Z,17.84
2022-10-18T17:39:52.700Z,17.77
2022-10-18T17:41:55.892Z,17.73
2022-10-18T17:43:59.097Z,17.56
2022-10-18T17:46:02.116Z,17.30
2022-10-18T17:48:05.325Z,17.12
2022-10-18T17:50:08.657Z,17.15
2022-10-18T17:54:16.414Z,17.17
2022-10-18T17:56:19.729Z,17.13
2022-10-18T17:58:22.798Z,17.11
2022-10-18T18:00:25.838Z,17.05
2022-10-18T18:02:28.893Z,16.79
2022-10-18T18:04:31.896Z,17.03
2022-10-18T18:06:36.803Z,16.95
2022-10-18T18:08:39.832Z,16.90
2022-10-18T18:10:44.837Z,16.88
2022-10-18T18:12:47.934Z,16.83
2022-10-18T18:14:51.035Z,16.83
2022-10-18T18:16:54.836Z,16.80
2022-10-18T18:18:58.727Z,16.80
2022-10-18T18:21:01.868Z,16.71
2022-10-18T18:23:04.978Z,16.64
2022-10-18T18:25:09.214Z,16.63
2022-10-18T18:27:13.800Z,16.58
2022-10-18T18:29:17.457Z,16.59
2022-10-18T18:31:23.431Z,16.55
2022-10-18T18:33:26.479Z,16.53
2022-10-18T18:35:29.485Z,16.52
2022-10-18T18:37:32.696Z,16.49
2022-10-18T18:39:36.169Z,16.37
2022-10-18T18:41:39.191Z,16.34
2022-10-18T18:43:44.871Z,16.31
2022-10-18T18:45:51.253Z,16.22
2022-10-18T18:47:54.448Z,16.23
2022-10-18T18:49:57.483Z,16.21
2022-10-18T18:52:00.494Z,16.19
2022-10-18T18:54:03.891Z,16.10
2022-10-18T18:56:08.197Z,15.99
2022-10-18T18:58:11.316Z,15.98
2022-10-18T19:00:16.349Z,15.87
2022-10-18T19:02:19.409Z,15.78
2022-10-18T19:04:22.483Z,15.81
2022-10-18T19:06:26.749Z,15.83
2022-10-18T19:08:29.835Z,15.82
2022-10-18T19:10:32.839Z,15.81
2022-10-18T19:12:36.063Z,15.77
2022-10-18T19:14:39.317Z,15.72
2022-10-18T19:16:46.818Z,15.68
2022-10-18T19:18:53.865Z,15.70
2022-10-18T19:20:56.980Z,15.70
2022-10-18T19:23:00.015Z,15.61
2022-10-18T19:25:03.049Z,15.60
2022-10-18T19:27:08.642Z,15.54
2022-10-18T19:29:13.448Z,15.54
2022-10-18T19:31:16.501Z,15.56
2022-10-18T19:33:35.545Z,15.49
2022-10-18T19:35:45.261Z,15.49
2022-10-18T19:37:48.272Z,15.48
2022-10-18T19:39:51.327Z,15.50
2022-10-18T19:41:56.066Z,15.45
2022-10-18T19:43:59.329Z,15.41
2022-10-18T19:46:02.959Z,15.38
2022-10-18T19:48:06.629Z,15.28
2022-10-18T19:50:11.163Z,15.27
2022-10-18T19:52:14.319Z,15.25
2022-10-18T19:54:17.485Z,15.16
2022-10-18T19:56:21.580Z,15.18
2022-10-18T19:58:24.640Z,15.16
2022-10-18T20:00:27.943Z,15.21
2022-10-18T20:02:31.352Z,15.20
2022-10-18T20:04:37.337Z,15.19
2022-10-18T20:06:42.134Z,15.14
2022-10-18T20:08:45.385Z,15.08
2022-10-18T20:10:48.464Z,15.09
2022-10-18T20:12:51.523Z,15.06
2022-10-18T20:14:54.655Z,15.05
2022-10-18T20:16:57.752Z,15.03
2022-10-18T20:19:01.884Z,15.00
2022-10-18T20:21:05.597Z,15.03
2022-10-18T20:23:09.978Z,14.96
2022-10-18T20:25:13.180Z,14.86
2022-10-18T20:27:16.305Z,14.76
2022-10-18T20:29:19.930Z,14.73
2022-10-18T20:31:23.670Z,14.75
2022-10-18T20:33:26.695Z,14.73
2022-10-18T20:35:29.727Z,14.71
2022-10-18T20:37:32.983Z,14.75
2022-10-18T20:39:37.903Z,14.74
2022-10-18T20:41:41.684Z,14.65
2022-10-18T20:43:45.302Z,14.55
2022-10-18T20:45:56.356Z,14.48
2022-10-18T20:47:59.405Z,14.10
2022-10-18T20:50:02.509Z,13.90
2022-10-18T20:52:05.492Z,13.76
2022-10-18T20:54:09.435Z,13.70
2022-10-18T20:56:14.946Z,13.74
2022-10-18T20:58:17.972Z,13.82
2022-10-18T21:00:21.066Z,13.87
2022-10-18T21:02:24.045Z,13.97
2022-10-18T21:04:27.077Z,13.98
2022-10-18T21:06:33.708Z,14.04
2022-10-18T21:08:36.782Z,13.95
2022-10-18T21:10:39.803Z,13.96
2022-10-18T21:12:44.199Z,13.96
2022-10-18T21:14:49.972Z,13.93
2022-10-18T21:16:53.268Z,13.91
2022-10-18T21:18:56.555Z,13.90
2022-10-18T21:21:07.561Z,13.89
2022-10-18T21:23:10.645Z,13.85
2022-10-18T21:25:13.773Z,13.86
2022-10-18T21:27:16.832Z,13.83
2022-10-18T21:29:22.786Z,13.83
2022-10-18T21:31:26.608Z,13.85
2022-10-18T21:33:29.785Z,13.83
2022-10-18T21:35:35.631Z,13.84
2022-10-18T21:37:38.641Z,13.89
2022-10-18T21:39:42.260Z,13.85
2022-10-18T21:41:45.583Z,13.87
2022-10-18T21:43:49.443Z,13.50
2022-10-18T21:45:59.055Z,13.44
2022-10-18T21:48:03.529Z,13.50
2022-10-18T21:50:06.838Z,13.55
2022-10-18T21:52:09.832Z,13.59
2022-10-18T21:54:13.924Z,13.57
2022-10-18T21:56:18.164Z,13.67
2022-10-18T21:58:21.212Z,13.68
2022-10-18T22:00:24.205Z,13.73
2022-10-18T22:02:28.584Z,13.73
2022-10-18T22:04:35.631Z,13.65
2022-10-18T22:06:38.933Z,13.63
2022-10-18T22:08:42.373Z,13.63
2022-10-18T22:10:45.435Z,13.63
2022-10-18T22:12:48.520Z,13.61
2022-10-18T22:14:51.566Z,13.56
2022-10-18T22:16:54.667Z,13.56
2022-10-18T22:19:00.231Z,13.54
2022-10-18T22:21:04.751Z,13.49
2022-10-18T22:23:12.522Z,13.44
2022-10-18T22:25:15.875Z,13.36
2022-10-18T22:27:18.983Z,13.42
2022-10-18T22:29:22.349Z,13.42
2022-10-18T22:31:26.412Z,13.35
2022-10-18T22:33:29.857Z,13.29
2022-10-18T22:35:34.617Z,13.25
2022-10-18T22:37:37.668Z,13.30
2022-10-18T22:39:40.663Z,13.23
2022-10-18T22:41:44.142Z,13.20
2022-10-18T22:43:47.671Z,13.14
2022-10-18T22:45:50.722Z,13.13
2022-10-18T22:47:53.830Z,13.16
2022-10-18T22:49:56.868Z,13.15
2022-10-18T22:52:01.237Z,13.19
2022-10-18T22:54:04.636Z,13.21
2022-10-18T22:56:08.603Z,13.10
2022-10-18T22:58:11.605Z,13.00
2022-10-18T23:00:15.183Z,12.95
2022-10-18T23:02:20.111Z,12.65
2022-10-18T23:04:23.171Z,12.96
2022-10-18T23:06:27.700Z,12.85
2022-10-18T23:08:32.852Z,12.85
2022-10-18T23:10:37.526Z,12.84
2022-10-18T23:12:40.562Z,12.86
2022-10-18T23:14:44.577Z,12.82
2022-10-18T23:16:47.664Z,12.66
2022-10-18T23:18:54.450Z,12.61
2022-10-18T23:21:01.333Z,12.54
2022-10-18T23:23:04.334Z,12.51
2022-10-18T23:25:09.341Z,12.53
2022-10-18T23:27:15.078Z,12.54
2022-10-18T23:29:18.320Z,12.56
2022-10-18T23:31:22.545Z,12.51
2022-10-18T23:33:25.579Z,12.45
2022-10-18T23:35:28.811Z,12.55
2022-10-18T23:37:32.329Z,12.32
2022-10-18T23:39:35.531Z,12.31
2022-10-18T23:41:39.918Z,12.32
2022-10-18T23:43:43.315Z,12.27
2022-10-18T23:47:54.294Z,12.12
2022-10-18T23:49:58.855Z,12.09
2022-10-18T23:52:01.907Z,12.12
2022-10-18T23:54:04.990Z,12.09
2022-10-18T23:56:09.290Z,12.17
2022-10-18T23:58:13.725Z,12.22
